Terminal Aerodrome Forecast
Issued by NWS

Home | Current Version | Previous Version | Text Only | Print | Product List | Glossary On
Versions: 1 2 3 4 5 6 7 8 9 10 11 12
132
FTUS42 TJSJ 281125
TAFNCM
TAF
TNCM 281125Z 2812/2912 07015G25KT P6SM SCT018
     FM281600 07020G30KT P6SM SCT020 BKN030
      TEMPO 2816/2818 4SM -TSRA SCT012 BKN020 OVC030CB
     FM282200 10017KT P6SM SCT021=

USA.gov is the U.S. government's official web portal to all federal, state and local government web resources and services.